Time;durP1;ratioP1;P1;durP2;ratioP2;P2;SDS_P1;SDS_P2;PMS_P1;PMS_P2;Temp;Humidity;BMP_temperature;BMP_pressure;BME280_temperature;BME280_humidity;BME280_pressure;Samples;Min_cycle;Max_cycle;Signal;HPM_P1;HPM_P2
2023/08/20 00:01:28;;;;;;;11.50;10.53;;;22.50;99.90;;;;;;5069581;28;20546;-53
2023/08/20 00:03:56;;;;;;;13.43;12.00;;;22.50;99.90;;;;;;5065700;28;20729;-53
2023/08/20 00:06:25;;;;;;;13.13;11.83;;;22.50;99.90;;;;;;5067639;28;20197;-55
2023/08/20 00:08:53;;;;;;;12.80;11.43;;;22.50;99.90;;;;;;5071181;28;20274;-53
2023/08/20 00:11:20;;;;;;;11.83;10.80;;;22.50;99.90;;;;;;5071059;28;20221;-53
2023/08/20 00:13:47;;;;;;;13.33;12.13;;;22.50;99.90;;;;;;5067264;28;20659;-53
2023/08/20 00:16:15;;;;;;;11.90;10.63;;;22.50;99.90;;;;;;5070728;28;20361;-53
2023/08/20 00:18:42;;;;;;;11.70;10.77;;;22.40;99.90;;;;;;5069700;28;20203;-53
2023/08/20 00:21:10;;;;;;;11.93;10.83;;;22.40;99.90;;;;;;5062339;28;20217;-53
2023/08/20 00:23:38;;;;;;;11.97;10.93;;;22.40;99.90;;;;;;5069221;28;20197;-53
2023/08/20 00:26:07;;;;;;;12.37;10.80;;;22.30;99.90;;;;;;5069393;28;20198;-53
2023/08/20 00:28:36;;;;;;;12.73;11.47;;;22.30;99.90;;;;;;5067957;28;20639;-53
2023/08/20 00:31:03;;;;;;;11.43;10.47;;;22.20;99.90;;;;;;5069954;28;20316;-53
2023/08/20 00:33:30;;;;;;;10.57;9.63;;;22.20;99.90;;;;;;5069718;28;20205;-53
2023/08/20 00:35:57;;;;;;;11.90;9.90;;;22.10;99.90;;;;;;5069540;28;20290;-52
2023/08/20 00:38:24;;;;;;;9.57;8.87;;;22.10;99.90;;;;;;5070469;28;20801;-53
2023/08/20 00:40:51;;;;;;;10.57;9.57;;;22.10;99.90;;;;;;5070587;28;20224;-53
2023/08/20 00:43:19;;;;;;;9.87;9.00;;;22.00;99.90;;;;;;5067602;28;20594;-53
2023/08/20 00:45:46;;;;;;;11.23;10.03;;;22.00;99.90;;;;;;5067304;28;20262;-53
2023/08/20 00:48:14;;;;;;;11.10;10.20;;;22.00;99.90;;;;;;5069077;28;20258;-53
2023/08/20 00:50:42;;;;;;;10.27;9.47;;;22.00;99.90;;;;;;5068935;28;20659;-53
2023/08/20 00:53:11;;;;;;;9.47;8.57;;;21.90;99.90;;;;;;5059820;28;20200;-53
2023/08/20 00:55:38;;;;;;;15.57;9.83;;;21.90;99.90;;;;;;5070006;28;20262;-53
2023/08/20 00:58:09;;;;;;;10.40;9.57;;;22.00;99.90;;;;;;5063761;28;20254;-53
2023/08/20 01:00:37;;;;;;;10.40;9.27;;;21.90;99.90;;;;;;5066808;28;20270;-53
2023/08/20 01:03:06;;;;;;;9.67;8.70;;;21.90;99.90;;;;;;5069301;28;20216;-53
2023/08/20 01:05:39;;;;;;;8.83;8.30;;;21.80;99.90;;;;;;5068936;28;20209;-53
2023/08/20 01:08:24;;;;;;;9.23;8.50;;;21.80;99.90;;;;;;5062796;28;20224;-55
2023/08/20 01:10:57;;;;;;;11.27;9.40;;;21.80;99.90;;;;;;5062032;28;20291;-53
2023/08/20 01:13:24;;;;;;;9.53;8.63;;;21.70;99.90;;;;;;5060454;28;20201;-53
2023/08/20 01:15:52;;;;;;;10.90;9.90;;;21.70;99.90;;;;;;5070194;28;20225;-53
2023/08/20 01:18:19;;;;;;;11.00;9.90;;;21.70;99.90;;;;;;5070274;28;20201;-53
2023/08/20 01:20:52;;;;;;;10.27;9.27;;;21.70;99.90;;;;;;5069574;28;20597;-53
2023/08/20 01:23:50;;;;;;;10.23;9.03;;;21.60;99.90;;;;;;5065722;28;20197;-53
2023/08/20 01:26:30;;;;;;;9.33;8.53;;;21.50;99.90;;;;;;5066997;28;20599;-53
2023/08/20 01:28:58;;;;;;;8.57;7.90;;;21.50;99.90;;;;;;5070044;28;20226;-53
2023/08/20 01:31:27;;;;;;;9.97;8.60;;;21.50;99.90;;;;;;5070114;28;20690;-53
2023/08/20 01:33:55;;;;;;;9.10;8.37;;;21.50;99.90;;;;;;5067260;28;20209;-53
2023/08/20 01:36:23;;;;;;;9.47;8.67;;;21.40;99.90;;;;;;5068457;28;20254;-53
2023/08/20 01:38:51;;;;;;;8.63;7.80;;;21.40;99.90;;;;;;5068468;28;20205;-53
2023/08/20 01:41:18;;;;;;;9.60;8.87;;;21.40;99.90;;;;;;5063034;28;20547;-53
2023/08/20 01:43:45;;;;;;;7.73;7.00;;;21.40;99.90;;;;;;5068894;28;20231;-53
2023/08/20 01:46:13;;;;;;;8.40;7.67;;;21.30;99.90;;;;;;5069765;28;20296;-53
2023/08/20 01:48:40;;;;;;;9.37;8.43;;;21.40;99.90;;;;;;5067402;28;20290;-53
2023/08/20 01:51:08;;;;;;;9.20;8.43;;;21.40;99.90;;;;;;5069075;28;20278;-52
2023/08/20 01:53:35;;;;;;;7.87;7.37;;;21.30;99.90;;;;;;5112927;22;20225;-52
2023/08/20 01:56:02;;;;;;;13.63;7.70;;;21.40;99.90;;;;;;5052303;28;20742;-52
2023/08/20 01:58:30;;;;;;;8.43;7.40;;;21.40;99.90;;;;;;5054904;28;20671;-52
2023/08/20 02:00:57;;;;;;;9.10;8.17;;;21.50;99.90;;;;;;5054122;28;20288;-52
2023/08/20 02:03:26;;;;;;;10.23;8.63;;;21.50;99.90;;;;;;5048087;28;20273;-52
2023/08/20 02:05:52;;;;;;;11.77;9.30;;;21.60;99.90;;;;;;5032733;28;20198;-52
2023/08/20 02:08:20;;;;;;;8.57;7.77;;;21.60;99.90;;;;;;5038857;28;20195;-52
2023/08/20 02:10:46;;;;;;;10.00;9.10;;;21.50;99.90;;;;;;5034669;28;20210;-52
2023/08/20 02:13:13;;;;;;;9.07;8.13;;;21.50;99.90;;;;;;5034352;28;20229;-52
2023/08/20 02:15:40;;;;;;;7.90;7.30;;;21.50;99.90;;;;;;5034151;28;20202;-52
2023/08/20 02:18:10;;;;;;;8.00;7.40;;;21.40;99.90;;;;;;5025430;28;20268;-52
2023/08/20 02:20:38;;;;;;;9.63;7.50;;;21.40;99.90;;;;;;5034749;28;20203;-52
2023/08/20 02:23:09;;;;;;;8.37;7.63;;;21.30;99.90;;;;;;5032800;28;20248;-52
2023/08/20 02:25:36;;;;;;;9.17;8.07;;;21.30;99.90;;;;;;5034313;28;20249;-52
2023/08/20 02:28:06;;;;;;;9.93;8.97;;;21.20;99.90;;;;;;5034356;28;20199;-52
2023/08/20 02:30:39;;;;;;;10.53;8.03;;;21.20;99.90;;;;;;5029681;28;20209;-52
2023/08/20 02:33:08;;;;;;;10.47;9.50;;;21.10;99.90;;;;;;5034087;28;20313;-52
2023/08/20 02:35:35;;;;;;;8.60;8.00;;;21.00;99.90;;;;;;5034233;28;20653;-52
2023/08/20 02:38:06;;;;;;;11.77;10.50;;;21.00;99.90;;;;;;5031100;28;20282;-52
2023/08/20 02:40:33;;;;;;;11.63;8.17;;;20.90;99.90;;;;;;5033979;28;20648;-52
2023/08/20 02:43:00;;;;;;;10.57;9.47;;;20.90;99.90;;;;;;5033246;28;20223;-52
2023/08/20 02:45:27;;;;;;;10.03;9.13;;;20.80;99.90;;;;;;5033923;28;20199;-52
2023/08/20 02:47:54;;;;;;;10.20;9.30;;;20.80;99.90;;;;;;5024947;28;20253;-52
2023/08/20 02:50:21;;;;;;;9.90;9.03;;;20.80;99.90;;;;;;5032144;28;20198;-52
2023/08/20 02:52:48;;;;;;;11.37;10.27;;;20.80;99.90;;;;;;5031683;28;20231;-52
2023/08/20 02:55:17;;;;;;;11.73;9.93;;;20.80;99.90;;;;;;5030138;28;20202;-52
2023/08/20 02:57:44;;;;;;;11.07;10.00;;;20.70;99.90;;;;;;5023616;28;20276;-52
2023/08/20 03:00:13;;;;;;;10.37;9.40;;;20.70;99.90;;;;;;5027243;28;20268;-52
2023/08/20 03:02:41;;;;;;;10.60;9.67;;;20.70;99.90;;;;;;5033402;28;20301;-51
2023/08/20 03:05:09;;;;;;;10.83;9.83;;;20.70;99.90;;;;;;5033580;28;20289;-52
2023/08/20 03:07:36;;;;;;;9.50;8.63;;;20.60;99.90;;;;;;5037797;28;20740;-52
2023/08/20 03:10:03;;;;;;;10.70;9.07;;;20.60;99.90;;;;;;5030967;28;20616;-53
2023/08/20 03:12:32;;;;;;;7.47;6.97;;;20.60;99.90;;;;;;5032975;28;20202;-53
2023/08/20 03:15:00;;;;;;;8.13;7.37;;;20.60;99.90;;;;;;5033441;28;20677;-52
2023/08/20 03:17:27;;;;;;;10.63;9.53;;;20.50;99.90;;;;;;5033461;28;20595;-53
2023/08/20 03:19:58;;;;;;;16.50;8.50;;;20.50;99.90;;;;;;5033346;28;20207;-53
2023/08/20 03:22:26;;;;;;;10.77;9.03;;;20.40;99.90;;;;;;5034712;28;20207;-53
2023/08/20 03:24:53;;;;;;;9.00;8.40;;;20.50;99.90;;;;;;5032109;28;20261;-53
2023/08/20 03:27:20;;;;;;;10.50;9.27;;;20.50;99.90;;;;;;5030910;28;20632;-53
2023/08/20 03:29:49;;;;;;;9.70;8.63;;;20.60;99.90;;;;;;5032296;28;20206;-53
2023/08/20 03:32:17;;;;;;;10.60;9.70;;;20.50;99.90;;;;;;5032868;28;20237;-52
2023/08/20 03:34:44;;;;;;;10.00;9.13;;;20.50;99.90;;;;;;5033130;28;20203;-53
2023/08/20 03:37:11;;;;;;;10.50;9.23;;;20.40;99.90;;;;;;5030529;28;20276;-52
2023/08/20 03:39:38;;;;;;;12.07;8.87;;;20.40;99.90;;;;;;5032093;28;20206;-53
2023/08/20 03:42:05;;;;;;;10.03;9.33;;;20.40;99.90;;;;;;5031987;28;20207;-53
2023/08/20 03:44:32;;;;;;;9.90;9.13;;;20.40;99.90;;;;;;5032173;28;20280;-53
2023/08/20 03:47:01;;;;;;;9.43;8.63;;;20.50;99.90;;;;;;5032764;28;20195;-53
2023/08/20 03:49:27;;;;;;;9.40;8.60;;;20.40;99.90;;;;;;5032409;28;20202;-53
2023/08/20 03:51:54;;;;;;;9.23;8.47;;;20.40;99.90;;;;;;5032798;28;20206;-53
2023/08/20 03:54:21;;;;;;;9.33;8.53;;;20.40;99.90;;;;;;5031235;28;20288;-53
2023/08/20 03:56:48;;;;;;;10.63;9.63;;;20.30;99.90;;;;;;5031944;28;20222;-53
2023/08/20 03:59:15;;;;;;;10.23;9.23;;;20.40;99.90;;;;;;5031308;28;20203;-53
2023/08/20 04:01:42;;;;;;;9.93;9.23;;;20.40;99.90;;;;;;5031351;28;20750;-53
2023/08/20 04:04:11;;;;;;;11.30;9.80;;;20.30;99.90;;;;;;5032300;28;20631;-53
2023/08/20 04:06:38;;;;;;;9.90;9.00;;;20.30;99.90;;;;;;5032737;28;20248;-53
2023/08/20 04:09:05;;;;;;;9.20;8.27;;;20.10;99.90;;;;;;5034261;28;20253;-53
2023/08/20 04:11:32;;;;;;;12.53;10.03;;;20.10;99.90;;;;;;5031070;28;20304;-53
2023/08/20 04:13:59;;;;;;;9.93;8.97;;;20.00;99.90;;;;;;5028428;28;20231;-53
2023/08/20 04:16:26;;;;;;;10.10;9.17;;;20.00;99.90;;;;;;5030824;28;20203;-53
2023/08/20 04:18:53;;;;;;;9.57;8.67;;;19.90;99.90;;;;;;5030606;28;20286;-53
2023/08/20 04:21:22;;;;;;;9.80;8.97;;;19.90;99.90;;;;;;5030139;28;20665;-52
2023/08/20 04:23:49;;;;;;;9.53;8.83;;;19.80;99.90;;;;;;5029547;28;20222;-53
2023/08/20 04:26:16;;;;;;;9.43;8.63;;;19.90;99.90;;;;;;5030914;28;20203;-53
2023/08/20 04:28:43;;;;;;;10.13;9.17;;;19.80;99.90;;;;;;5028049;28;20249;-53
2023/08/20 04:31:10;;;;;;;11.90;9.90;;;19.90;99.90;;;;;;5031151;28;20202;-52
2023/08/20 04:33:37;;;;;;;10.37;9.53;;;19.90;99.90;;;;;;5029453;28;20285;-52
2023/08/20 04:36:04;;;;;;;9.60;8.80;;;19.90;99.90;;;;;;5030530;28;20252;-52
2023/08/20 04:38:32;;;;;;;9.67;8.70;;;20.00;99.90;;;;;;5030421;28;20272;-53
2023/08/20 04:40:59;;;;;;;13.97;9.13;;;20.00;99.90;;;;;;5030540;28;20226;-53
2023/08/20 04:43:26;;;;;;;10.10;9.10;;;20.00;99.90;;;;;;5030548;28;20222;-53
2023/08/20 04:45:53;;;;;;;12.57;9.30;;;20.00;99.90;;;;;;5031701;28;20256;-52
2023/08/20 04:48:20;;;;;;;9.83;8.37;;;19.90;99.90;;;;;;5029521;28;20249;-53
2023/08/20 04:50:48;;;;;;;9.50;8.80;;;19.90;99.90;;;;;;5029434;28;20209;-53
2023/08/20 04:53:15;;;;;;;10.10;9.30;;;19.90;99.90;;;;;;5028356;28;20297;-52
2023/08/20 04:55:43;;;;;;;9.83;8.93;;;19.90;99.90;;;;;;5028376;28;20194;-52
2023/08/20 04:58:10;;;;;;;9.30;8.40;;;19.80;99.90;;;;;;5027687;28;20215;-52
2023/08/20 05:00:37;;;;;;;12.30;9.10;;;19.80;99.90;;;;;;5030348;28;20206;-52
2023/08/20 05:03:05;;;;;;;10.70;9.87;;;19.80;99.90;;;;;;5028320;28;20727;-52
2023/08/20 05:05:32;;;;;;;9.27;8.37;;;19.80;99.90;;;;;;5030616;28;20203;-52
2023/08/20 05:07:59;;;;;;;8.73;8.00;;;19.80;99.90;;;;;;5029320;28;20680;-53
2023/08/20 05:10:26;;;;;;;10.40;9.40;;;19.80;99.90;;;;;;5027277;28;20195;-52
2023/08/20 05:12:54;;;;;;;12.77;9.10;;;19.90;99.90;;;;;;5030390;28;20222;-52
2023/08/20 05:15:22;;;;;;;11.63;10.53;;;19.90;99.90;;;;;;5023386;28;20209;-52
2023/08/20 05:17:49;;;;;;;10.17;9.20;;;20.00;99.90;;;;;;5034630;28;20242;-53
2023/08/20 05:20:16;;;;;;;10.87;9.87;;;20.10;99.90;;;;;;5025326;28;20195;-52
2023/08/20 05:22:43;;;;;;;11.60;10.57;;;20.20;99.90;;;;;;5031212;28;20241;-53
2023/08/20 05:25:10;;;;;;;12.33;10.57;;;20.60;99.90;;;;;;5029705;28;20198;-53
2023/08/20 05:27:37;;;;;;;12.17;10.53;;;21.30;99.90;;;;;;5030147;28;20218;-52
2023/08/20 05:30:08;;;;;;;11.27;10.13;;;22.20;99.90;;;;;;5024682;28;20195;-52
2023/08/20 05:32:35;;;;;;;10.07;8.60;;;23.00;99.90;;;;;;5028164;28;20226;-52
2023/08/20 05:35:03;;;;;;;9.87;9.00;;;23.80;99.90;;;;;;5030696;28;20202;-52
2023/08/20 05:37:31;;;;;;;10.37;9.47;;;24.70;99.90;;;;;;5027091;28;20222;-53
2023/08/20 05:39:58;;;;;;;10.93;9.03;;;25.40;99.90;;;;;;5029793;28;20194;-53
2023/08/20 05:42:25;;;;;;;9.00;8.17;;;25.90;99.90;;;;;;5028654;28;20292;-52
2023/08/20 05:44:52;;;;;;;8.80;7.97;;;26.40;99.90;;;;;;5028681;28;20206;-52
2023/08/20 05:47:21;;;;;;;10.50;7.90;;;26.90;99.90;;;;;;5027658;28;20194;-52
2023/08/20 05:49:48;;;;;;;8.80;8.00;;;27.20;99.90;;;;;;5029579;28;20225;-52
2023/08/20 05:52:15;;;;;;;9.03;7.30;;;27.60;99.90;;;;;;5029573;28;20211;-52
2023/08/20 05:54:42;;;;;;;8.13;7.47;;;28.00;99.90;;;;;;5029407;28;20264;-52
2023/08/20 05:57:09;;;;;;;8.25;7.65;;;28.50;99.90;;;;;;5029677;28;20198;-52
2023/08/20 05:59:36;;;;;;;10.40;6.50;;;28.90;99.90;;;;;;5029060;28;20194;-52
2023/08/20 06:02:03;;;;;;;6.40;5.85;;;29.40;99.90;;;;;;5024424;28;20684;-52
2023/08/20 06:04:32;;;;;;;6.80;6.28;;;29.60;99.90;;;;;;5029120;28;20275;-52
2023/08/20 06:06:59;;;;;;;6.82;6.53;;;29.80;99.90;;;;;;5029801;28;20198;-52
2023/08/20 06:09:26;;;;;;;6.75;6.20;;;30.20;99.90;;;;;;5028746;28;20199;-52
2023/08/20 06:11:53;;;;;;;7.10;6.78;;;30.60;99.90;;;;;;5029374;28;20203;-52
2023/08/20 06:14:20;;;;;;;6.25;5.85;;;30.80;99.90;;;;;;5028415;28;20218;-53
2023/08/20 06:16:47;;;;;;;8.98;6.65;;;30.70;99.90;;;;;;5027696;28;20202;-53
2023/08/20 06:19:14;;;;;;;7.03;6.43;;;30.80;99.90;;;;;;5029236;28;21084;-53
2023/08/20 06:21:42;;;;;;;7.28;5.60;;;30.10;99.90;;;;;;5029585;28;20202;-54
2023/08/20 06:24:09;;;;;;;6.68;6.07;;;30.30;99.90;;;;;;5026225;28;20704;-53
2023/08/20 06:26:36;;;;;;;6.72;5.93;;;30.70;99.90;;;;;;5029791;28;20573;-53
2023/08/20 06:29:04;;;;;;;6.15;5.40;;;31.60;99.90;;;;;;5022868;28;20260;-54
2023/08/20 06:31:31;;;;;;;6.20;5.75;;;32.10;99.90;;;;;;5027923;28;20853;-53
2023/08/20 06:33:58;;;;;;;6.85;6.18;;;32.50;99.90;;;;;;5027316;28;20276;-54
2023/08/20 06:36:25;;;;;;;6.43;5.50;;;33.10;99.90;;;;;;5029373;28;20202;-53
2023/08/20 06:38:53;;;;;;;7.03;6.38;;;32.90;99.90;;;;;;5029221;28;20219;-53
2023/08/20 06:41:20;;;;;;;15.18;6.57;;;32.30;99.90;;;;;;5029284;28;20202;-53
2023/08/20 06:43:47;;;;;;;6.22;5.45;;;31.60;99.90;;;;;;5031791;28;20222;-54
2023/08/20 06:46:14;;;;;;;6.20;5.80;;;31.90;99.90;;;;;;5029655;28;20700;-53
2023/08/20 06:48:41;;;;;;;6.35;5.85;;;32.70;99.90;;;;;;5032725;28;20241;-54
2023/08/20 06:51:15;;;;;;;6.28;5.70;;;33.20;99.90;;;;;;5031562;28;20249;-53
2023/08/20 06:53:42;;;;;;;7.18;6.18;;;33.70;99.90;;;;;;5032055;28;20227;-53
2023/08/20 06:56:11;;;;;;;8.88;6.88;;;34.40;97.50;;;;;;5032587;28;20253;-54
2023/08/20 06:58:42;;;;;;;8.27;7.15;;;34.70;98.20;;;;;;5030555;28;20237;-53
2023/08/20 07:01:09;;;;;;;7.40;6.75;;;34.70;98.80;;;;;;5032130;28;20204;-54
2023/08/20 07:03:37;;;;;;;6.85;6.43;;;35.30;98.10;;;;;;5031427;28;20226;-53
2023/08/20 07:06:04;;;;;;;8.18;7.68;;;35.50;98.10;;;;;;5032837;28;20695;-54
2023/08/20 07:08:31;;;;;;;7.70;7.20;;;35.20;98.30;;;;;;5033362;28;20660;-54
2023/08/20 07:10:58;;;;;;;7.22;6.72;;;35.40;98.10;;;;;;5032720;28;20207;-53
2023/08/20 07:13:27;;;;;;;10.32;7.15;;;35.50;98.20;;;;;;5031479;28;20638;-54
2023/08/20 07:15:54;;;;;;;6.28;5.78;;;35.60;97.60;;;;;;5033922;28;20206;-54
2023/08/20 07:18:21;;;;;;;8.68;6.82;;;35.70;96.20;;;;;;5033383;28;20222;-54
2023/08/20 07:20:48;;;;;;;7.65;7.03;;;35.90;95.60;;;;;;5030013;28;20207;-54
2023/08/20 07:23:15;;;;;;;7.07;6.38;;;35.40;97.00;;;;;;5032994;28;20223;-55
2023/08/20 07:25:44;;;;;;;7.30;6.18;;;35.40;96.60;;;;;;5034398;28;20614;-54
2023/08/20 07:28:11;;;;;;;7.28;6.75;;;35.70;95.60;;;;;;5031110;28;20565;-54
2023/08/20 07:30:39;;;;;;;7.10;6.60;;;35.70;95.80;;;;;;5028731;28;20244;-53
2023/08/20 07:33:10;;;;;;;8.32;7.65;;;35.50;95.20;;;;;;5028225;28;20276;-55
2023/08/20 07:35:37;;;;;;;6.30;5.53;;;35.60;94.80;;;;;;5032296;28;20652;-54
2023/08/20 07:38:08;;;;;;;7.38;6.25;;;35.70;96.60;;;;;;5029536;28;20635;-54
2023/08/20 07:40:34;;;;;;;5.95;5.38;;;35.80;95.10;;;;;;5031508;28;20209;-54
2023/08/20 07:43:02;;;;;;;7.10;6.57;;;35.90;96.70;;;;;;5030246;28;20218;-54
2023/08/20 07:45:29;;;;;;;7.78;5.60;;;35.70;96.00;;;;;;5031724;28;20194;-54
2023/08/20 07:47:58;;;;;;;7.13;6.38;;;35.80;93.90;;;;;;5027467;28;20340;-54
2023/08/20 07:50:25;;;;;;;6.57;6.28;;;35.90;93.30;;;;;;5033539;28;20210;-54
2023/08/20 07:52:52;;;;;;;6.28;5.78;;;36.00;92.60;;;;;;5026378;28;20233;-54
2023/08/20 07:55:19;;;;;;;6.35;5.97;;;35.60;92.80;;;;;;5031376;28;20253;-54
2023/08/20 07:57:48;;;;;;;6.30;5.75;;;35.80;93.60;;;;;;5031597;28;20202;-55
2023/08/20 08:00:16;;;;;;;6.25;5.80;;;35.50;93.40;;;;;;5030554;28;20230;-54
2023/08/20 08:02:43;;;;;;;6.00;5.57;;;36.00;92.00;;;;;;5029726;28;20276;-54
2023/08/20 08:05:14;;;;;;;6.88;6.22;;;36.00;92.50;;;;;;5029614;28;20276;-55
2023/08/20 08:07:41;;;;;;;6.88;5.10;;;36.10;91.10;;;;;;5026401;28;20203;-54
2023/08/20 08:10:09;;;;;;;6.72;6.07;;;36.00;93.50;;;;;;5031194;28;20187;-54
2023/08/20 08:12:36;;;;;;;5.50;5.20;;;36.20;93.80;;;;;;5030707;28;20736;-54
2023/08/20 08:15:04;;;;;;;6.13;5.53;;;36.50;92.70;;;;;;5026723;28;20210;-54
2023/08/20 08:17:30;;;;;;;5.68;5.22;;;36.70;93.40;;;;;;5030692;28;20198;-54
2023/08/20 08:19:58;;;;;;;5.70;5.10;;;36.50;91.60;;;;;;5026718;28;20219;-54
2023/08/20 08:22:26;;;;;;;5.32;5.05;;;36.60;90.80;;;;;;5026676;28;20212;-54
2023/08/20 08:24:53;;;;;;;5.90;5.50;;;36.50;90.60;;;;;;5026727;28;20203;-54
2023/08/20 08:27:21;;;;;;;5.45;5.25;;;36.90;91.10;;;;;;5025711;28;20615;-54
2023/08/20 08:29:48;;;;;;;5.80;5.40;;;37.10;86.80;;;;;;5029501;28;20576;-54
2023/08/20 08:32:15;;;;;;;5.13;4.82;;;36.40;87.60;;;;;;5028333;28;20956;-54
2023/08/20 08:34:42;;;;;;;5.75;5.35;;;36.10;91.90;;;;;;5029429;28;20633;-54
2023/08/20 08:37:09;;;;;;;5.90;5.50;;;35.30;91.00;;;;;;5026934;28;20956;-60
2023/08/20 08:39:38;;;;;;;5.55;5.05;;;34.30;90.00;;;;;;5029021;28;20781;-59
2023/08/20 08:42:07;;;;;;;6.18;5.70;;;34.80;91.20;;;;;;5030779;28;20280;-62
2023/08/20 08:44:35;;;;;;;7.35;5.40;;;35.50;91.40;;;;;;5030204;28;20225;-62
2023/08/20 08:47:03;;;;;;;5.93;5.63;;;35.80;90.00;;;;;;5030099;28;20221;-64
2023/08/20 08:49:31;;;;;;;5.72;5.32;;;36.30;90.60;;;;;;5024835;28;20199;-61
2023/08/20 08:51:58;;;;;;;5.20;4.63;;;36.80;87.70;;;;;;5029894;28;20619;-63
2023/08/20 08:54:25;;;;;;;5.28;4.88;;;36.80;90.00;;;;;;5029778;28;20659;-63
2023/08/20 08:56:54;;;;;;;5.95;5.45;;;36.90;90.30;;;;;;5030464;28;20198;-63
2023/08/20 08:59:21;;;;;;;6.30;5.75;;;36.70;88.80;;;;;;5026929;28;20218;-62
2023/08/20 09:01:48;;;;;;;6.65;6.18;;;36.70;88.10;;;;;;5024648;28;20198;-60
2023/08/20 09:04:15;;;;;;;7.30;6.07;;;37.00;90.00;;;;;;5024096;28;21049;-59
2023/08/20 09:06:49;;;;;;;4.97;4.57;;;37.00;91.20;;;;;;5023209;28;20214;-61
2023/08/20 09:09:18;;;;;;;5.80;5.38;;;37.00;90.00;;;;;;5028941;28;20598;-61
2023/08/20 09:11:47;;;;;;;6.07;5.57;;;36.90;85.20;;;;;;5029855;28;20202;-60
2023/08/20 09:14:28;;;;;;;5.32;4.93;;;36.80;88.10;;;;;;5029427;28;20270;-63
2023/08/20 09:16:56;;;;;;;6.18;5.78;;;36.90;90.20;;;;;;5027060;28;20210;-63
2023/08/20 09:19:24;;;;;;;5.90;5.38;;;37.00;86.90;;;;;;5033172;28;20222;-62
2023/08/20 09:21:53;;;;;;;5.78;5.30;;;37.20;86.60;;;;;;5029740;28;20198;-62
2023/08/20 09:24:32;;;;;;;6.07;5.65;;;37.40;87.20;;;;;;5029640;28;20233;-64
2023/08/20 09:27:00;;;;;;;6.45;6.05;;;37.10;88.50;;;;;;5028548;28;20252;-61
2023/08/20 09:29:28;;;;;;;5.80;5.60;;;37.40;87.50;;;;;;5026106;28;20281;-61
2023/08/20 09:32:02;;;;;;;5.70;5.28;;;37.40;87.10;;;;;;5026938;28;20261;-62
2023/08/20 09:34:38;;;;;;;6.70;6.15;;;37.60;86.30;;;;;;5030000;28;20221;-64
2023/08/20 09:37:09;;;;;;;5.88;5.57;;;37.90;86.80;;;;;;5028410;28;20202;-59
2023/08/20 09:39:36;;;;;;;6.35;5.88;;;38.30;84.70;;;;;;5029404;28;20646;-59
2023/08/20 09:42:10;;;;;;;6.93;6.43;;;38.30;82.00;;;;;;5029726;28;20715;-60
2023/08/20 09:44:40;;;;;;;5.65;5.43;;;37.90;82.00;;;;;;5030559;28;20222;-59
2023/08/20 09:47:08;;;;;;;10.43;5.07;;;38.20;85.50;;;;;;5070821;22;20239;-54
2023/08/20 09:49:39;;;;;;;6.60;5.90;;;37.80;80.90;;;;;;5055240;28;20282;-62
2023/08/20 09:52:08;;;;;;;5.93;5.63;;;37.80;84.20;;;;;;5065252;28;20675;-61
2023/08/20 09:54:56;;;;;;;7.60;6.93;;;37.90;82.70;;;;;;5057193;28;20613;-60
2023/08/20 09:57:34;;;;;;;7.80;7.13;;;37.60;89.60;;;;;;5047374;28;20299;-61
2023/08/20 10:00:05;;;;;;;7.88;7.38;;;37.70;90.60;;;;;;5044928;28;20219;-54
2023/08/20 10:02:33;;;;;;;8.05;7.32;;;36.90;90.70;;;;;;5037612;28;20202;-53
2023/08/20 10:05:03;;;;;;;8.88;8.27;;;36.80;92.60;;;;;;5044308;28;20256;-58
2023/08/20 10:07:32;;;;;;;9.95;9.35;;;36.30;94.30;;;;;;5047169;28;20714;-59
2023/08/20 10:10:01;;;;;;;9.00;8.20;;;36.40;94.00;;;;;;5047930;28;20735;-59
2023/08/20 10:12:29;;;;;;;8.93;8.23;;;35.50;93.90;;;;;;5043816;28;20616;-59
2023/08/20 10:14:57;;;;;;;10.50;8.90;;;35.20;94.80;;;;;;5044962;28;20205;-59
2023/08/20 10:17:25;;;;;;;8.25;7.55;;;35.00;96.40;;;;;;5043347;28;20652;-62
2023/08/20 10:19:53;;;;;;;8.18;7.68;;;35.10;95.50;;;;;;5050183;28;20225;-62
2023/08/20 10:22:21;;;;;;;9.05;8.25;;;35.00;94.40;;;;;;5051996;28;20209;-54
2023/08/20 10:24:53;;;;;;;8.85;8.25;;;34.60;94.30;;;;;;5050485;28;20608;-53
2023/08/20 10:27:27;;;;;;;9.30;8.60;;;34.80;95.60;;;;;;5051400;28;20566;-54
2023/08/20 10:29:55;;;;;;;9.68;8.75;;;34.50;93.90;;;;;;5050395;28;20735;-52
2023/08/20 10:32:47;;;;;;;7.90;7.40;;;34.30;95.70;;;;;;5050433;28;20217;-54
2023/08/20 10:35:15;;;;;;;7.82;7.32;;;34.20;95.00;;;;;;5048212;28;20201;-54
2023/08/20 10:38:07;;;;;;;8.65;7.82;;;34.80;94.50;;;;;;5051716;28;20221;-54
2023/08/20 10:40:53;;;;;;;7.63;6.90;;;35.50;94.00;;;;;;5050818;28;20237;-54
2023/08/20 10:43:39;;;;;;;8.80;8.25;;;35.50;94.60;;;;;;5048349;28;20289;-53
2023/08/20 10:46:08;;;;;;;8.65;8.15;;;35.10;94.80;;;;;;5044075;28;20255;-54
2023/08/20 10:48:38;;;;;;;7.28;6.68;;;34.90;93.90;;;;;;5049629;28;20198;-54
2023/08/20 10:51:13;;;;;;;8.85;7.97;;;34.90;95.80;;;;;;5050623;28;20212;-57
2023/08/20 10:53:42;;;;;;;8.52;7.72;;;35.00;94.80;;;;;;5050020;28;20201;-57
2023/08/20 10:56:14;;;;;;;8.70;7.90;;;35.00;95.80;;;;;;5042999;28;20198;-59
2023/08/20 10:58:47;;;;;;;9.23;8.52;;;34.20;96.00;;;;;;5048084;28;20274;-63
2023/08/20 11:01:20;;;;;;;9.07;8.48;;;33.60;96.70;;;;;;5049701;28;20208;-62
2023/08/20 11:03:51;;;;;;;9.90;9.07;;;33.10;98.70;;;;;;5044374;28;20723;-58
2023/08/20 11:06:19;;;;;;;8.85;8.15;;;32.60;98.10;;;;;;5049062;28;20271;-55
2023/08/20 11:08:47;;;;;;;8.35;7.85;;;32.80;99.00;;;;;;5049880;28;20198;-63
2023/08/20 11:11:14;;;;;;;9.18;8.50;;;32.90;99.10;;;;;;5051382;28;20224;-61
2023/08/20 11:13:42;;;;;;;9.52;8.57;;;32.80;98.70;;;;;;5049825;28;20201;-63
2023/08/20 11:16:10;;;;;;;10.35;9.45;;;32.90;99.90;;;;;;5046182;28;20202;-61
2023/08/20 11:18:37;;;;;;;14.55;9.85;;;32.80;98.90;;;;;;5051520;28;20438;-61
2023/08/20 11:21:06;;;;;;;9.63;9.07;;;32.80;98.90;;;;;;5051289;28;20726;-61
2023/08/20 11:23:34;;;;;;;10.68;9.88;;;32.50;99.90;;;;;;5047942;28;20194;-61
2023/08/20 11:26:01;;;;;;;10.35;9.45;;;32.60;99.90;;;;;;5049543;28;20205;-60
2023/08/20 11:28:29;;;;;;;10.48;9.82;;;32.60;99.90;;;;;;5050915;28;20229;-61
2023/08/20 11:30:57;;;;;;;10.65;9.93;;;32.60;99.90;;;;;;5050132;28;20605;-61
2023/08/20 11:33:27;;;;;;;10.93;9.93;;;32.60;99.90;;;;;;5044092;28;20280;-61
2023/08/20 11:35:54;;;;;;;11.52;10.48;;;32.60;99.90;;;;;;5046880;28;20201;-61
2023/08/20 11:38:25;;;;;;;10.10;9.18;;;32.60;99.90;;;;;;5051014;28;20205;-60
2023/08/20 11:40:52;;;;;;;11.70;10.50;;;32.60;99.90;;;;;;5045654;28;20218;-61
2023/08/20 11:43:20;;;;;;;10.93;10.15;;;32.40;99.90;;;;;;5050437;28;20205;-61
2023/08/20 11:45:48;;;;;;;10.05;9.45;;;32.20;99.90;;;;;;5050938;28;20209;-61
2023/08/20 11:48:16;;;;;;;10.95;10.10;;;32.10;99.90;;;;;;5045833;28;20343;-59
2023/08/20 11:50:44;;;;;;;10.75;9.98;;;32.00;99.90;;;;;;5047446;28;20234;-56
2023/08/20 11:53:11;;;;;;;9.43;8.82;;;32.00;99.90;;;;;;5047239;28;20202;-56
2023/08/20 11:55:42;;;;;;;11.27;10.27;;;32.00;99.90;;;;;;5049393;28;20198;-56
2023/08/20 11:58:13;;;;;;;10.20;9.40;;;32.00;99.90;;;;;;5047201;28;20249;-56
2023/08/20 12:00:41;;;;;;;9.95;9.25;;;31.80;99.90;;;;;;5046134;28;20214;-55
2023/08/20 12:03:11;;;;;;;9.98;9.27;;;31.60;99.90;;;;;;5049476;28;20289;-56
2023/08/20 12:05:41;;;;;;;10.82;9.13;;;31.80;99.90;;;;;;5041900;28;20664;-56
2023/08/20 12:08:08;;;;;;;10.07;9.07;;;31.90;99.90;;;;;;5048438;28;20221;-56
2023/08/20 12:10:36;;;;;;;10.85;9.93;;;32.00;99.90;;;;;;5045889;28;20202;-55
2023/08/20 12:13:08;;;;;;;10.05;9.35;;;31.80;99.90;;;;;;5049544;28;20256;-56
2023/08/20 12:15:35;;;;;;;11.60;10.65;;;31.80;99.90;;;;;;5048161;28;20240;-61
2023/08/20 12:18:05;;;;;;;9.75;8.85;;;31.80;99.90;;;;;;5044789;28;20371;-56
2023/08/20 12:20:35;;;;;;;11.73;8.77;;;31.80;99.90;;;;;;5040146;28;20284;-55
2023/08/20 12:23:04;;;;;;;9.82;9.02;;;31.80;99.90;;;;;;5045709;28;20206;-55
2023/08/20 12:25:33;;;;;;;11.23;10.18;;;31.80;99.90;;;;;;5043741;28;20198;-57
2023/08/20 12:28:01;;;;;;;9.93;9.18;;;31.70;99.90;;;;;;5047417;28;20637;-56
2023/08/20 12:30:29;;;;;;;9.80;9.05;;;31.80;99.90;;;;;;5040410;28;20248;-56
2023/08/20 12:32:58;;;;;;;10.02;8.98;;;31.70;99.90;;;;;;5042337;28;20529;-58
2023/08/20 12:35:25;;;;;;;9.43;8.88;;;31.70;99.90;;;;;;5039795;28;20210;-59
2023/08/20 12:37:53;;;;;;;10.02;9.10;;;31.60;99.90;;;;;;5044377;28;20225;-59
2023/08/20 12:40:20;;;;;;;9.35;8.75;;;31.60;99.90;;;;;;5043735;28;20593;-56
2023/08/20 12:42:46;;;;;;;9.00;8.35;;;31.60;99.90;;;;;;5047049;28;20206;-58
2023/08/20 12:45:13;;;;;;;9.02;8.38;;;31.60;99.90;;;;;;5049388;28;20206;-56
2023/08/20 12:47:42;;;;;;;9.48;8.57;;;31.70;99.90;;;;;;5047234;28;20229;-55
2023/08/20 12:50:10;;;;;;;9.40;8.57;;;31.80;99.90;;;;;;5040355;28;20194;-56